Khorramabad, Iran
Current Conditions -  °F | °C
As of 7:30 PM on Friday 21 Nov 2014 (Local Time) from OICC Reporting Station
Broken Clouds Broken Clouds  
Wind Chill:   Ceiling: 8000
Heat Index:   Visibility: 5mi
Dew Point:   Wind: 9mph
Humidity: 87%   Direction: 120°ESE
Pressure: 30.18"   Gusts: NA
Location:  33.47°N, 48.35°E
Report Text: OICC 211630Z 12008KT 8000 FEW035CB SCT040 BKN08008/06 Q1022 A3019 RERA
Loading
Personal Weather Stations






























Interactive Weather Map New forecast layout! Learn more

10-Day Weather Forecast

Advertisements
Track Severe Weather on mobile